Time;durP1;ratioP1;P1;durP2;ratioP2;P2;SDS_P1;SDS_P2;PMS_P1;PMS_P2;Temp;Humidity;BMP_temperature;BMP_pressure;BME280_temperature;BME280_humidity;BME280_pressure;Samples;Min_cycle;Max_cycle;Signal;HPM_P1;HPM_P2
2022/10/24 00:01:50;;;;;;;;;;;15.10;99.90;;;;;;5092656;28;1909;-67
2022/10/24 00:04:15;;;;;;;;;;;15.10;99.90;;;;;;5106484;28;1229;-67
2022/10/24 00:06:41;;;;;;;;;;;15.10;99.90;;;;;;5105442;28;1150;-67
2022/10/24 00:09:07;;;;;;;;;;;15.20;99.90;;;;;;5098527;28;1607;-67
2022/10/24 00:11:33;;;;;;;;;;;15.20;99.90;;;;;;5110088;28;1064;-67
2022/10/24 00:13:59;;;;;;;;;;;15.30;99.90;;;;;;5092472;28;1138;-67
2022/10/24 00:16:25;;;;;;;;;;;15.30;99.90;;;;;;5075654;28;1255;-67
2022/10/24 00:18:51;;;;;;;;;;;15.30;99.90;;;;;;5109997;28;1163;-67
2022/10/24 00:21:17;;;;;;;;;;;15.40;99.90;;;;;;5092148;28;1227;-67
2022/10/24 00:23:42;;;;;;;;;;;15.40;99.90;;;;;;5109800;28;1886;-67
2022/10/24 00:26:09;;;;;;;;;;;15.40;99.90;;;;;;5109331;28;1060;-67
2022/10/24 00:28:36;;;;;;;;;;;15.30;99.90;;;;;;5110095;28;1230;-67
2022/10/24 00:31:02;;;;;;;;;;;15.30;99.90;;;;;;5110045;28;1251;-67
2022/10/24 00:33:28;;;;;;;;;;;15.20;99.90;;;;;;5106781;28;1223;-67
2022/10/24 00:35:54;;;;;;;;;;;15.20;99.90;;;;;;5110273;28;1258;-67
2022/10/24 00:38:19;;;;;;;;;;;15.20;99.90;;;;;;5109903;28;1183;-67
2022/10/24 00:40:45;;;;;;;;;;;15.10;99.90;;;;;;5107221;28;1247;-67
2022/10/24 00:43:17;;;;;;;;;;;15.10;99.90;;;;;;5109894;28;1913;-67
2022/10/24 00:45:45;;;;;;;;;;;14.30;99.90;;;;;;5091804;28;1331;-67
2022/10/24 00:48:13;;;;;;;;;;;15.00;99.90;;;;;;5114157;27;1355;-67
2022/10/24 00:50:38;;;;;;;;;;;14.90;99.90;;;;;;5106097;28;1227;-67
2022/10/24 00:53:04;;;;;;;;;;;14.90;99.90;;;;;;5101977;28;1438;-67
2022/10/24 00:55:30;;;;;;;;;;;14.90;99.90;;;;;;5091071;28;1155;-67
2022/10/24 00:58:00;;;;;;;;;;;14.90;99.90;;;;;;5109966;28;1068;-67
2022/10/24 01:00:28;;;;;;;;;;;14.90;99.90;;;;;;5109621;28;1097;-67
2022/10/24 01:02:53;;;;;;;;;;;14.90;99.90;;;;;;5109720;28;1917;-67
2022/10/24 01:05:20;;;;;;;;;;;14.90;99.90;;;;;;5109944;28;1103;-67
2022/10/24 01:07:57;;;;;;;;;;;14.90;99.90;;;;;;5102530;28;1382;-67
2022/10/24 01:10:31;;;;;;;;;;;14.80;99.90;;;;;;5089275;28;1909;-67
2022/10/24 01:13:01;;;;;;;;;;;14.80;99.90;;;;;;5100082;28;1040;-67
2022/10/24 01:15:33;;;;;;;;;;;14.80;99.90;;;;;;5127588;27;1116;-67
2022/10/24 01:18:01;;;;;;;;;;;14.70;99.90;;;;;;5129760;27;1115;-67
2022/10/24 01:20:31;;;;;;;;;;;14.70;99.90;;;;;;5112297;27;1092;-67
2022/10/24 01:23:02;;;;;;;;;;;14.70;99.90;;;;;;5121430;27;1905;-67
2022/10/24 01:25:37;;;;;;;;;;;14.70;99.90;;;;;;5116254;27;1113;-67
2022/10/24 01:28:06;;;;;;;;;;;14.70;99.90;;;;;;5110000;28;1206;-67
2022/10/24 01:30:39;;;;;;;;;;;14.60;99.90;;;;;;5107576;28;1193;-67
2022/10/24 01:33:08;;;;;;;;;;;14.70;99.90;;;;;;5108777;28;1096;-67
2022/10/24 01:35:43;;;;;;;;;;;14.60;99.90;;;;;;5109232;28;1100;-67
2022/10/24 01:38:10;;;;;;;;;;;14.70;99.90;;;;;;5091259;28;1087;-67
2022/10/24 01:40:41;;;;;;;;;;;14.70;99.90;;;;;;5109521;28;1131;-67
2022/10/24 01:43:09;;;;;;;;;;;14.70;99.90;;;;;;5108320;28;1972;-67
2022/10/24 01:45:37;;;;;;;;;;;14.70;99.90;;;;;;5109495;28;1059;-67
2022/10/24 01:48:04;;;;;;;;;;;14.70;99.90;;;;;;5108381;28;1167;-67
2022/10/24 01:50:31;;;;;;;;;;;14.80;99.90;;;;;;5108351;28;1016;-67
2022/10/24 01:52:57;;;;;;;;;;;14.80;99.90;;;;;;5119881;28;1004;-67
2022/10/24 01:55:23;;;;;;;;;;;14.80;99.90;;;;;;5109006;28;1104;-67
2022/10/24 01:57:49;;;;;;;;;;;14.80;99.90;;;;;;5109085;28;1151;-67
2022/10/24 02:00:16;;;;;;;;;;;14.80;99.90;;;;;;5109046;28;1158;-67
2022/10/24 02:02:44;;;;;;;;;;;14.80;99.90;;;;;;5108897;28;1909;-67
2022/10/24 02:05:13;;;;;;;;;;;14.80;99.90;;;;;;5110422;28;1128;-67
2022/10/24 02:07:40;;;;;;;;;;;14.90;99.90;;;;;;5113650;28;1318;-67
2022/10/24 02:10:07;;;;;;;;;;;14.90;99.90;;;;;;5112592;28;1327;-67
2022/10/24 02:12:36;;;;;;;;;;;14.90;99.90;;;;;;5104231;28;1262;-67
2022/10/24 02:15:03;;;;;;;;;;;15.00;99.90;;;;;;5113460;28;1099;-67
2022/10/24 02:17:29;;;;;;;;;;;15.00;99.90;;;;;;5112145;28;1119;-67
2022/10/24 02:19:55;;;;;;;;;;;15.00;99.90;;;;;;5113176;28;1170;-67
2022/10/24 02:22:28;;;;;;;;;;;15.00;99.90;;;;;;5094927;28;1922;-67
2022/10/24 02:24:57;;;;;;;;;;;15.10;99.90;;;;;;5112123;28;1199;-67
2022/10/24 02:27:27;;;;;;;;;;;15.10;99.90;;;;;;5112987;28;1146;-67
2022/10/24 02:30:02;;;;;;;;;;;15.10;99.90;;;;;;5113137;28;1195;-67
2022/10/24 02:32:31;;;;;;;;;;;15.10;99.90;;;;;;5111865;28;1092;-67
2022/10/24 02:34:57;;;;;;;;;;;15.20;99.90;;;;;;5112386;28;1104;-67
2022/10/24 02:37:24;;;;;;;;;;;15.20;99.90;;;;;;5094405;28;1072;-67
2022/10/24 02:39:51;;;;;;;;;;;15.10;99.90;;;;;;5111381;28;1208;-67
2022/10/24 02:42:17;;;;;;;;;;;15.20;99.90;;;;;;5112973;28;1902;-67
2022/10/24 02:44:46;;;;;;;;;;;15.20;99.90;;;;;;5112345;28;1075;-67
2022/10/24 02:47:13;;;;;;;;;;;15.20;99.90;;;;;;5111672;28;1143;-67
2022/10/24 02:49:40;;;;;;;;;;;15.20;99.90;;;;;;5112272;28;1337;-67
2022/10/24 02:52:06;;;;;;;;;;;15.30;99.90;;;;;;5121945;27;1096;-67
2022/10/24 02:54:32;;;;;;;;;;;15.30;99.90;;;;;;5098746;28;1117;-67
2022/10/24 02:56:59;;;;;;;;;;;15.30;99.90;;;;;;5112701;28;1139;-67
2022/10/24 02:59:25;;;;;;;;;;;15.40;99.90;;;;;;5112592;28;1124;-67
2022/10/24 03:01:50;;;;;;;;;;;15.40;99.90;;;;;;5110977;27;1910;-67
2022/10/24 03:04:16;;;;;;;;;;;15.40;99.90;;;;;;5112652;28;1101;-67
2022/10/24 03:06:42;;;;;;;;;;;15.40;99.90;;;;;;5094030;28;1147;-67
2022/10/24 03:09:08;;;;;;;;;;;15.40;99.90;;;;;;5109658;28;1600;-67
2022/10/24 03:11:33;;;;;;;;;;;15.40;99.90;;;;;;5112157;28;1110;-67
2022/10/24 03:13:59;;;;;;;;;;;15.40;99.90;;;;;;5111374;28;1092;-67
2022/10/24 03:16:26;;;;;;;;;;;15.40;99.90;;;;;;5111243;28;1092;-67
2022/10/24 03:18:52;;;;;;;;;;;15.40;99.90;;;;;;5108681;28;1100;-66
2022/10/24 03:21:17;;;;;;;;;;;15.40;99.90;;;;;;5105063;28;1100;-67
2022/10/24 03:23:43;;;;;;;;;;;15.40;99.90;;;;;;5085973;28;1989;-67
2022/10/24 03:26:08;;;;;;;;;;;15.40;99.90;;;;;;5112103;28;1105;-67
2022/10/24 03:28:34;;;;;;;;;;;15.40;99.90;;;;;;5110970;28;1138;-67
2022/10/24 03:31:00;;;;;;;;;;;15.40;99.90;;;;;;5111615;28;1088;-67
2022/10/24 03:33:25;;;;;;;;;;;15.50;99.90;;;;;;5111652;28;1179;-67
2022/10/24 03:35:52;;;;;;;;;;;15.50;99.90;;;;;;5111164;28;1096;-67
2022/10/24 03:38:18;;;;;;;;;;;15.50;99.90;;;;;;5111142;27;1204;-67
2022/10/24 03:40:44;;;;;;;;;;;15.50;99.90;;;;;;5111531;28;1152;-67
2022/10/24 03:43:09;;;;;;;;;;;15.50;99.90;;;;;;5110998;28;1984;-67
2022/10/24 03:45:36;;;;;;;;;;;15.50;99.90;;;;;;5111004;28;1082;-67
2022/10/24 03:48:02;;;;;;;;;;;15.50;99.90;;;;;;5114299;27;1123;-67
2022/10/24 03:50:28;;;;;;;;;;;15.50;99.90;;;;;;5131373;27;1059;-67
2022/10/24 03:52:54;;;;;;;;;;;15.50;99.90;;;;;;5128795;27;1093;-67
2022/10/24 03:55:19;;;;;;;;;;;15.40;99.90;;;;;;5127905;27;1115;-67
2022/10/24 03:57:46;;;;;;;;;;;15.50;99.90;;;;;;5131273;27;1107;-67
2022/10/24 04:00:12;;;;;;;;;;;15.50;99.90;;;;;;5131260;27;1160;-67
2022/10/24 04:02:38;;;;;;;;;;;15.50;99.90;;;;;;5132078;27;1909;-67
2022/10/24 04:05:03;;;;;;;;;;;15.50;99.90;;;;;;5125913;27;1200;-66
2022/10/24 04:07:29;;;;;;;;;;;15.40;99.90;;;;;;5131223;27;1330;-67
2022/10/24 04:09:56;;;;;;;;;;;15.50;99.90;;;;;;5127352;27;1479;-67
2022/10/24 04:12:22;;;;;;;;;;;15.50;99.90;;;;;;5124462;27;1087;-67
2022/10/24 04:14:48;;;;;;;;;;;15.50;99.90;;;;;;5131052;27;1084;-67
2022/10/24 04:17:13;;;;;;;;;;;15.50;99.90;;;;;;5131055;27;1183;-67
2022/10/24 04:19:39;;;;;;;;;;;15.50;99.90;;;;;;5131634;27;1170;-67
2022/10/24 04:22:04;;;;;;;;;;;15.40;99.90;;;;;;5123404;27;1963;-67
2022/10/24 04:24:30;;;;;;;;;;;15.40;99.90;;;;;;5130586;27;1071;-67
2022/10/24 04:26:56;;;;;;;;;;;15.40;99.90;;;;;;5131343;27;1115;-67
2022/10/24 04:29:21;;;;;;;;;;;15.40;99.90;;;;;;5128938;27;1111;-67
2022/10/24 04:31:47;;;;;;;;;;;15.40;99.90;;;;;;5130655;27;989;-67
2022/10/24 04:34:13;;;;;;;;;;;15.30;99.90;;;;;;5131142;27;1084;-67
2022/10/24 04:36:38;;;;;;;;;;;15.30;99.90;;;;;;5130867;27;1155;-67
2022/10/24 04:39:04;;;;;;;;;;;15.30;99.90;;;;;;5128409;27;1108;-67
2022/10/24 04:41:30;;;;;;;;;;;15.20;99.90;;;;;;5131148;27;1135;-67
2022/10/24 04:43:56;;;;;;;;;;;15.20;99.90;;;;;;5130402;27;1979;-67
2022/10/24 04:46:22;;;;;;;;;;;15.10;99.90;;;;;;5130310;27;1189;-67
2022/10/24 04:48:47;;;;;;;;;;;15.10;99.90;;;;;;5120419;27;1239;-67
2022/10/24 04:51:13;;;;;;;;;;;15.10;99.90;;;;;;5114321;27;1147;-67
2022/10/24 04:53:38;;;;;;;;;;;15.00;99.90;;;;;;5115876;27;1067;-67
2022/10/24 04:56:04;;;;;;;;;;;15.00;99.90;;;;;;5110130;28;1120;-66
2022/10/24 04:58:30;;;;;;;;;;;15.00;99.90;;;;;;5109762;28;1151;-67
2022/10/24 05:00:56;;;;;;;;;;;15.00;99.90;;;;;;5109359;28;1127;-67
2022/10/24 05:03:22;;;;;;;;;;;15.00;99.90;;;;;;5110125;28;1906;-66
2022/10/24 05:05:48;;;;;;;;;;;15.00;99.90;;;;;;5110229;28;1137;-67
2022/10/24 05:08:14;;;;;;;;;;;14.90;99.90;;;;;;5080817;28;1304;-66
2022/10/24 05:10:40;;;;;;;;;;;14.90;99.90;;;;;;5109660;28;1309;-67
2022/10/24 05:13:06;;;;;;;;;;;14.80;99.90;;;;;;5110076;28;1175;-66
2022/10/24 05:15:31;;;;;;;;;;;14.90;99.90;;;;;;5108611;28;1122;-67
2022/10/24 05:17:57;;;;;;;;;;;14.90;99.90;;;;;;5109984;28;1159;-67
2022/10/24 05:20:23;;;;;;;;;;;14.90;99.90;;;;;;5109722;28;944;-66
2022/10/24 05:22:49;;;;;;;;;;;14.90;99.90;;;;;;5106278;28;1922;-67
2022/10/24 05:25:14;;;;;;;;;;;14.90;99.90;;;;;;5109248;28;1144;-67
2022/10/24 05:27:40;;;;;;;;;;;14.90;99.90;;;;;;5107046;28;1238;-67
2022/10/24 05:30:06;;;;;;;;;;;14.90;99.90;;;;;;5106127;28;1092;-67
2022/10/24 05:32:32;;;;;;;;;;;14.90;99.90;;;;;;5109024;27;1290;-67
2022/10/24 05:34:57;;;;;;;;;;;15.00;99.90;;;;;;5108526;28;1144;-67
2022/10/24 05:37:23;;;;;;;;;;;15.00;99.90;;;;;;5109134;28;1096;-66
2022/10/24 05:39:48;;;;;;;;;;;15.00;99.90;;;;;;5109341;28;1139;-66
2022/10/24 05:42:14;;;;;;;;;;;15.00;99.90;;;;;;5090603;28;1910;-67
2022/10/24 05:44:40;;;;;;;;;;;15.10;99.90;;;;;;5108979;28;1108;-67
2022/10/24 05:47:06;;;;;;;;;;;15.10;99.90;;;;;;5109585;28;1085;-66
2022/10/24 05:49:31;;;;;;;;;;;15.10;99.90;;;;;;5113785;28;1268;-67
2022/10/24 05:51:57;;;;;;;;;;;15.10;99.90;;;;;;5115469;28;1150;-66
2022/10/24 05:54:23;;;;;;;;;;;15.00;99.90;;;;;;5109382;28;1103;-67
2022/10/24 05:56:48;;;;;;;;;;;15.10;99.90;;;;;;5108778;28;1147;-67
2022/10/24 05:59:14;;;;;;;;;;;15.10;99.90;;;;;;5114695;28;1027;-66
2022/10/24 06:01:40;;;;;;;;;;;15.00;99.90;;;;;;5091331;28;1077;-66
2022/10/24 06:04:06;;;;;;;;;;;15.00;99.90;;;;;;5108709;28;1906;-66
2022/10/24 06:06:33;;;;;;;;;;;15.00;99.90;;;;;;5090844;28;1022;-66
2022/10/24 06:08:59;;;;;;;;;;;15.00;99.90;;;;;;5076710;28;1438;-66
2022/10/24 06:11:24;;;;;;;;;;;15.00;99.90;;;;;;5108674;28;1071;-66
2022/10/24 06:13:50;;;;;;;;;;;15.00;99.90;;;;;;5108249;28;1127;-67
2022/10/24 06:16:15;;;;;;;;;;;15.00;99.90;;;;;;5116271;28;1139;-66
2022/10/24 06:18:41;;;;;;;;;;;15.00;99.90;;;;;;5109384;28;1131;-67
2022/10/24 06:21:08;;;;;;;;;;;15.00;99.90;;;;;;5108662;28;1092;-66
2022/10/24 06:23:34;;;;;;;;;;;15.00;99.90;;;;;;5107242;28;1973;-66
2022/10/24 06:25:59;;;;;;;;;;;15.00;99.90;;;;;;5115866;28;1145;-66
2022/10/24 06:28:25;;;;;;;;;;;15.10;99.90;;;;;;5108242;28;1194;-67
2022/10/24 06:30:53;;;;;;;;;;;15.10;99.90;;;;;;5108417;28;1104;-66
2022/10/24 06:33:19;;;;;;;;;;;15.10;99.90;;;;;;5110383;28;1218;-66
2022/10/24 06:35:45;;;;;;;;;;;15.10;99.90;;;;;;5116169;28;1079;-66
2022/10/24 06:38:11;;;;;;;;;;;15.10;99.90;;;;;;5108165;28;1120;-66
2022/10/24 06:40:39;;;;;;;;;;;15.20;99.90;;;;;;5109048;28;1092;-66
2022/10/24 06:43:05;;;;;;;;;;;15.20;99.90;;;;;;5110957;28;1906;-66
2022/10/24 06:45:31;;;;;;;;;;;15.30;99.90;;;;;;5108156;28;1126;-66
2022/10/24 06:47:56;;;;;;;;;;;15.30;99.90;;;;;;5108678;28;1258;-66
2022/10/24 06:50:22;;;;;;;;;;;15.30;99.90;;;;;;5081887;28;1579;-66
2022/10/24 06:52:47;;;;;;;;;;;15.40;99.90;;;;;;5110199;28;953;-67
2022/10/24 06:55:13;;;;;;;;;;;15.40;99.90;;;;;;5108191;28;3174;-67
2022/10/24 06:57:39;;;;;;;;;;;15.40;99.90;;;;;;5093835;28;1180;-67
2022/10/24 07:00:05;;;;;;;;;;;15.50;99.90;;;;;;5111351;28;1124;-67
2022/10/24 07:02:31;;;;;;;;;;;15.40;99.90;;;;;;5112777;28;2016;-67
2022/10/24 07:04:57;;;;;;;;;;;15.40;99.90;;;;;;5093044;28;1152;-67
2022/10/24 07:07:23;;;;;;;;;;;15.30;99.90;;;;;;5109130;28;1321;-66
2022/10/24 07:09:51;;;;;;;;;;;15.30;99.90;;;;;;5093381;28;1732;-67
2022/10/24 07:12:16;;;;;;;;;;;15.30;99.90;;;;;;5111548;28;1128;-67
2022/10/24 07:14:42;;;;;;;;;;;15.30;99.90;;;;;;5111369;28;1240;-67
2022/10/24 07:17:07;;;;;;;;;;;15.20;99.90;;;;;;5111947;28;1309;-66
2022/10/24 07:19:33;;;;;;;;;;;15.20;99.90;;;;;;5088503;28;1122;-67
2022/10/24 07:21:59;;;;;;;;;;;15.20;99.90;;;;;;5106897;28;3432;-67
2022/10/24 07:24:24;;;;;;;;;;;15.10;99.90;;;;;;5091982;28;3372;-67
2022/10/24 07:26:50;;;;;;;;;;;15.20;99.90;;;;;;5097528;28;3419;-67
2022/10/24 07:29:16;;;;;;;;;;;15.30;99.90;;;;;;5111022;28;1104;-66
2022/10/24 07:31:41;;;;;;;;;;;15.30;99.90;;;;;;5093854;28;1117;-67
2022/10/24 07:34:08;;;;;;;;;;;15.50;99.90;;;;;;5091890;28;1184;-66
2022/10/24 07:36:33;;;;;;;;;;;15.60;99.90;;;;;;5111494;28;1277;-67
2022/10/24 07:39:00;;;;;;;;;;;15.60;99.90;;;;;;5111456;28;1092;-66
2022/10/24 07:41:27;;;;;;;;;;;15.60;99.90;;;;;;5097501;28;1074;-67
2022/10/24 07:43:54;;;;;;;;;;;15.70;99.90;;;;;;5078278;28;1914;-66
2022/10/24 07:46:19;;;;;;;;;;;15.70;99.90;;;;;;5111464;28;1179;-67
2022/10/24 07:48:47;;;;;;;;;;;15.80;99.90;;;;;;5109937;28;1323;-66
2022/10/24 07:51:13;;;;;;;;;;;15.90;99.90;;;;;;5094501;27;1380;-67
2022/10/24 07:53:39;;;;;;;;;;;15.90;99.90;;;;;;5111855;27;1210;-67
2022/10/24 07:56:08;;;;;;;;;;;16.00;99.90;;;;;;5110567;28;1140;-67
2022/10/24 07:58:34;;;;;;;;;;;16.00;99.90;;;;;;5111083;28;1128;-66
2022/10/24 08:01:02;;;;;;;;;;;16.10;99.90;;;;;;5111812;27;1326;-66
2022/10/24 08:03:28;;;;;;;;;;;16.30;99.90;;;;;;5108607;28;1980;-67
2022/10/24 08:05:55;;;;;;;;;;;16.50;99.90;;;;;;5111106;28;1243;-67
2022/10/24 08:08:21;;;;;;;;;;;16.60;99.90;;;;;;5110453;27;1366;-67
2022/10/24 08:10:47;;;;;;;;;;;16.60;99.90;;;;;;5115957;27;1679;-68
2022/10/24 08:13:12;;;;;;;;;;;16.70;99.90;;;;;;5110582;28;1144;-67
2022/10/24 08:15:38;;;;;;;;;;;16.60;99.90;;;;;;5108264;28;2293;-66
2022/10/24 08:18:04;;;;;;;;;;;16.50;99.90;;;;;;5094650;27;2322;-67
2022/10/24 08:20:29;;;;;;;;;;;16.50;99.90;;;;;;5091162;28;1723;-67
2022/10/24 08:22:55;;;;;;;;;;;16.60;99.90;;;;;;5104088;28;1902;-67
2022/10/24 08:25:21;;;;;;;;;;;16.70;99.90;;;;;;5110116;28;1163;-67
2022/10/24 08:27:46;;;;;;;;;;;16.60;99.90;;;;;;5109853;28;1345;-67
2022/10/24 08:30:12;;;;;;;;;;;16.10;99.90;;;;;;5110288;28;1228;-67
2022/10/24 08:32:38;;;;;;;;;;;16.70;99.90;;;;;;5110082;28;1120;-67
2022/10/24 08:35:04;;;;;;;;;;;16.70;99.90;;;;;;5111433;27;1234;-67
2022/10/24 08:37:30;;;;;;;;;;;16.70;99.90;;;;;;5115056;27;1147;-67
2022/10/24 08:39:56;;;;;;;;;;;16.70;99.90;;;;;;5110445;28;1174;-67
2022/10/24 08:42:23;;;;;;;;;;;16.90;99.90;;;;;;5109121;28;1968;-67
2022/10/24 08:44:49;;;;;;;;;;;17.00;99.90;;;;;;5110440;27;1246;-67
2022/10/24 08:47:34;;;;;;;;;;;16.90;99.90;;;;;;5107751;28;1399;-66
2022/10/24 08:50:03;;;;;;;;;;;16.90;99.90;;;;;;5128201;27;1260;-67
2022/10/24 08:52:31;;;;;;;;;;;16.80;99.90;;;;;;5127676;27;1152;-67
2022/10/24 08:54:58;;;;;;;;;;;16.80;99.90;;;;;;5126736;27;3715;-67
2022/10/24 08:57:28;;;;;;;;;;;16.70;99.90;;;;;;5129978;27;1312;-67
2022/10/24 08:59:55;;;;;;;;;;;16.70;99.90;;;;;;5125831;27;1231;-67
2022/10/24 09:02:24;;;;;;;;;;;16.70;99.90;;;;;;5129370;27;1918;-67
2022/10/24 09:04:55;;;;;;;;;;;16.60;99.90;;;;;;5134220;27;1197;-67
2022/10/24 09:07:21;;;;;;;;;;;16.60;99.90;;;;;;5118187;27;1321;-67
2022/10/24 09:09:49;;;;;;;;;;;16.60;99.90;;;;;;5130466;27;1647;-67
2022/10/24 09:12:17;;;;;;;;;;;16.50;99.90;;;;;;5130284;27;1123;-67
2022/10/24 09:14:44;;;;;;;;;;;16.40;99.90;;;;;;5128963;27;1196;-67
2022/10/24 09:17:17;;;;;;;;;;;16.30;99.90;;;;;;5130574;27;1095;-67
2022/10/24 09:19:45;;;;;;;;;;;16.20;99.90;;;;;;5129296;27;1131;-67
2022/10/24 09:22:11;;;;;;;;;;;16.10;99.90;;;;;;5135478;27;3613;-67
2022/10/24 09:24:41;;;;;;;;;;;16.10;99.90;;;;;;5128033;27;3467;-67
2022/10/24 09:27:10;;;;;;;;;;;16.00;99.90;;;;;;5129043;27;1127;-67
2022/10/24 09:29:36;;;;;;;;;;;16.10;99.90;;;;;;5120889;27;3345;-67
2022/10/24 09:32:02;;;;;;;;;;;16.20;99.90;;;;;;5126020;27;1414;-67
2022/10/24 09:34:28;;;;;;;;;;;16.30;99.90;;;;;;5123125;27;1112;-67
2022/10/24 09:36:53;;;;;;;;;;;16.30;99.90;;;;;;5130291;27;1120;-67
2022/10/24 09:39:28;;;;;;;;;;;16.30;99.90;;;;;;5129063;27;1146;-67
2022/10/24 09:41:54;;;;;;;;;;;16.30;99.90;;;;;;5127537;27;3308;-67
2022/10/24 09:44:28;;;;;;;;;;;16.30;99.90;;;;;;5129789;27;1965;-67
2022/10/24 09:46:54;;;;;;;;;;;16.20;99.90;;;;;;5117396;27;1339;-67
2022/10/24 09:49:21;;;;;;;;;;;16.20;99.90;;;;;;5128261;27;1090;-67
2022/10/24 09:51:49;;;;;;;;;;;16.20;99.90;;;;;;5129878;28;1068;-67
2022/10/24 09:54:18;;;;;;;;;;;16.20;99.90;;;;;;5128649;28;1152;-67
2022/10/24 09:56:52;;;;;;;;;;;16.20;99.90;;;;;;5127957;27;1083;-67
2022/10/24 09:59:18;;;;;;;;;;;16.30;99.90;;;;;;5106517;28;1123;-67
2022/10/24 10:01:44;;;;;;;;;;;16.50;99.90;;;;;;5129117;28;1060;-67
2022/10/24 10:04:14;;;;;;;;;;;16.70;99.90;;;;;;5129217;28;1898;-67
2022/10/24 10:06:42;;;;;;;;;;;16.80;99.90;;;;;;5131437;27;1469;-67
2022/10/24 10:09:11;;;;;;;;;;;17.10;99.90;;;;;;5109802;28;1283;-67
2022/10/24 10:11:37;;;;;;;;;;;17.10;99.90;;;;;;5110394;28;1291;-67
2022/10/24 10:14:04;;;;;;;;;;;17.10;99.90;;;;;;5129348;28;1138;-67
2022/10/24 10:16:32;;;;;;;;;;;17.00;99.90;;;;;;5109649;28;1121;-67
2022/10/24 10:19:02;;;;;;;;;;;17.40;99.90;;;;;;5119526;28;1866;-67
2022/10/24 10:21:48;;;;;;;;;;;17.70;99.90;;;;;;5129323;28;1104;-67
2022/10/24 10:24:22;;;;;;;;;;;17.40;99.90;;;;;;5135546;27;1987;-67
2022/10/24 10:26:48;;;;;;;;;;;17.20;99.90;;;;;;5130831;27;1115;-67
2022/10/24 10:29:15;;;;;;;;;;;16.90;99.90;;;;;;5132547;27;1122;-67
2022/10/24 10:31:43;;;;;;;;;;;16.90;99.90;;;;;;5113819;27;1136;-67
2022/10/24 10:34:13;;;;;;;;;;;16.60;99.90;;;;;;5134976;27;3424;-67
2022/10/24 10:36:40;;;;;;;;;;;16.60;99.90;;;;;;5132976;27;3659;-67
2022/10/24 10:39:06;;;;;;;;;;;16.70;99.90;;;;;;5139898;27;1204;-67
2022/10/24 10:41:42;;;;;;;;;;;16.70;99.90;;;;;;5118062;27;3970;-67
2022/10/24 10:44:17;;;;;;;;;;;17.00;99.90;;;;;;5136396;27;1970;-67
2022/10/24 10:46:45;;;;;;;;;;;17.00;99.90;;;;;;5131853;27;1103;-67
2022/10/24 10:49:28;;;;;;;;;;;17.30;99.90;;;;;;5119605;27;1237;-67
2022/10/24 10:51:57;;;;;;;;;;;17.60;99.90;;;;;;5121861;27;1145;-67
2022/10/24 10:54:29;;;;;;;;;;;17.60;99.90;;;;;;5098848;28;1116;-67
2022/10/24 10:56:58;;;;;;;;;;;17.80;99.90;;;;;;5094296;28;1117;-67
2022/10/24 10:59:31;;;;;;;;;;;18.30;99.90;;;;;;5090900;27;1239;-67
2022/10/24 11:01:56;;;;;;;;;;;18.90;99.90;;;;;;5097876;28;1123;-67
2022/10/24 11:04:42;;;;;;;;;;;18.90;99.90;;;;;;5111148;28;1906;-67
2022/10/24 11:07:20;;;;;;;;;;;18.90;99.90;;;;;;5111274;28;1354;-67
2022/10/24 11:09:49;;;;;;;;;;;19.00;99.90;;;;;;5093040;28;1370;-67
2022/10/24 11:12:18;;;;;;;;;;;18.80;99.90;;;;;;5111631;28;1134;-67
2022/10/24 11:14:54;;;;;;;;;;;18.30;99.90;;;;;;5112120;28;1012;-67
2022/10/24 11:17:19;;;;;;;;;;;18.10;99.90;;;;;;5111339;28;1096;-67
2022/10/24 11:19:53;;;;;;;;;;;17.60;99.90;;;;;;5111492;28;1108;-67
2022/10/24 11:22:22;;;;;;;;;;;17.20;99.90;;;;;;5112053;28;1914;-67
2022/10/24 11:24:52;;;;;;;;;;;16.90;99.90;;;;;;5111592;28;1151;-67
2022/10/24 11:27:23;;;;;;;;;;;16.60;99.90;;;;;;5111211;28;1245;-67
2022/10/24 11:29:54;;;;;;;;;;;16.60;99.90;;;;;;5111658;28;1096;-67
2022/10/24 11:32:24;;;;;;;;;;;16.70;99.90;;;;;;5093384;28;1163;-67
2022/10/24 11:34:53;;;;;;;;;;;16.60;99.90;;;;;;5110800;28;1138;-67
2022/10/24 11:37:18;;;;;;;;;;;16.60;99.90;;;;;;5111389;28;1096;-67
2022/10/24 11:39:53;;;;;;;;;;;16.50;99.90;;;;;;5111201;28;1088;-67
2022/10/24 11:42:20;;;;;;;;;;;16.60;99.90;;;;;;5110885;28;1988;-67
2022/10/24 11:44:51;;;;;;;;;;;16.60;99.90;;;;;;5111060;28;1157;-67
2022/10/24 11:47:32;;;;;;;;;;;16.50;99.90;;;;;;5110515;28;1186;-67
2022/10/24 11:50:05;;;;;;;;;;;16.50;99.90;;;;;;5131087;27;1251;-67
2022/10/24 11:52:34;;;;;;;;;;;16.40;99.90;;;;;;5117929;27;1123;-67
2022/10/24 11:55:04;;;;;;;;;;;16.40;99.90;;;;;;5131055;27;1068;-67
2022/10/24 11:57:30;;;;;;;;;;;16.30;99.90;;;;;;5131797;27;1104;-67
2022/10/24 11:59:57;;;;;;;;;;;16.30;99.90;;;;;;5132041;27;1092;-67
2022/10/24 12:02:51;;;;;;;;;;;16.30;99.90;;;;;;5130305;27;2071;-67
2022/10/24 12:05:27;;;;;;;;;;;16.40;99.90;;;;;;5131765;27;1104;-67
2022/10/24 12:08:07;;;;;;;;;;;16.40;99.90;;;;;;5130990;27;1305;-67
2022/10/24 12:10:39;;;;;;;;;;;16.40;99.90;;;;;;5122706;27;1158;-67
2022/10/24 12:13:23;;;;;;;;;;;16.40;99.90;;;;;;5131771;27;1091;-67
2022/10/24 12:15:59;;;;;;;;;;;16.30;99.90;;;;;;5119386;27;1108;-67
2022/10/24 12:18:31;;;;;;;;;;;16.30;99.90;;;;;;5127331;27;1108;-67
2022/10/24 12:21:00;;;;;;;;;;;16.30;99.90;;;;;;5118952;27;1202;-67
2022/10/24 12:23:28;;;;;;;;;;;16.30;99.90;;;;;;5126546;27;1950;-67
2022/10/24 12:26:01;;;;;;;;;;;16.40;99.90;;;;;;5131301;27;1087;-67
2022/10/24 12:28:26;;;;;;;;;;;16.40;99.90;;;;;;5128243;27;1242;-67
2022/10/24 12:31:21;;;;;;;;;;;16.40;99.90;;;;;;5130076;27;1167;-67
2022/10/24 12:34:07;;;;;;;;;;;16.40;99.90;;;;;;5131021;27;1221;-67
2022/10/24 12:36:51;;;;;;;;;;;16.30;99.90;;;;;;5128164;27;1574;-67
2022/10/24 12:39:27;;;;;;;;;;;16.40;99.90;;;;;;5098748;27;3173;-67
2022/10/24 12:41:54;;;;;;;;;;;16.40;99.90;;;;;;5131256;27;1111;-67
2022/10/24 12:44:35;;;;;;;;;;;16.40;99.90;;;;;;5126027;27;1996;-67
2022/10/24 12:47:21;;;;;;;;;;;16.50;99.90;;;;;;5129958;27;1011;-67
2022/10/24 12:49:47;;;;;;;;;;;16.80;99.90;;;;;;5117850;27;1144;-67
2022/10/24 12:52:29;;;;;;;;;;;17.20;99.90;;;;;;5127422;27;3455;-67
2022/10/24 12:54:54;;;;;;;;;;;17.40;99.90;;;;;;5121270;27;3798;-67
2022/10/24 12:57:24;;;;;;;;;;;17.80;99.90;;;;;;5111990;27;3359;-67
2022/10/24 12:59:51;;;;;;;;;;;18.20;99.90;;;;;;5110883;27;1088;-67
2022/10/24 13:02:35;;;;;;;;;;;17.90;99.90;;;;;;5130475;27;1971;-67
2022/10/24 13:05:08;;;;;;;;;;;17.90;99.90;;;;;;5122786;27;1139;-67
2022/10/24 13:07:41;;;;;;;;;;;18.10;99.90;;;;;;5114466;27;1366;-67
2022/10/24 13:10:12;;;;;;;;;;;17.70;99.90;;;;;;5121820;27;3367;-67
2022/10/24 13:12:48;;;;;;;;;;;17.10;99.90;;;;;;5129067;27;1131;-67
2022/10/24 13:15:19;;;;;;;;;;;16.80;99.90;;;;;;5099825;28;1209;-67
2022/10/24 13:17:45;;;;;;;;;;;16.70;99.90;;;;;;5122086;27;1166;-67
2022/10/24 13:20:23;;;;;;;;;;;17.00;99.90;;;;;;5129269;27;1106;-67
2022/10/24 13:22:49;;;;;;;;;;;17.70;99.90;;;;;;5104588;27;1922;-67
2022/10/24 13:25:17;;;;;;;;;;;18.20;99.90;;;;;;5130272;27;1135;-67
2022/10/24 13:27:43;;;;;;;;;;;18.60;99.90;;;;;;5128942;27;1491;-67
2022/10/24 13:30:23;;;;;;;;;;;18.70;99.90;;;;;;5129069;27;1039;-67
2022/10/24 13:32:48;;;;;;;;;;;18.70;99.90;;;;;;5128758;27;1171;-67
2022/10/24 13:35:17;;;;;;;;;;;18.30;99.90;;;;;;5130046;27;1127;-67
2022/10/24 13:37:46;;;;;;;;;;;17.70;99.90;;;;;;5129622;27;1072;-67
2022/10/24 13:40:14;;;;;;;;;;;17.20;99.90;;;;;;5127403;27;1545;-67
2022/10/24 13:42:49;;;;;;;;;;;16.70;99.90;;;;;;5121116;27;1969;-67
2022/10/24 13:45:20;;;;;;;;;;;16.50;99.90;;;;;;5128564;27;1142;-67
2022/10/24 13:47:49;;;;;;;;;;;16.30;99.90;;;;;;5127321;28;1278;-67
2022/10/24 13:50:20;;;;;;;;;;;16.30;99.90;;;;;;5108426;28;1148;-67
2022/10/24 13:52:49;;;;;;;;;;;16.20;99.90;;;;;;5096386;28;2093;-67
2022/10/24 13:55:18;;;;;;;;;;;16.20;99.90;;;;;;5119464;28;1227;-67
2022/10/24 13:57:51;;;;;;;;;;;16.10;99.90;;;;;;5129026;28;1220;-67
2022/10/24 14:00:20;;;;;;;;;;;16.10;99.90;;;;;;5128905;27;1315;-67
2022/10/24 14:02:46;;;;;;;;;;;16.00;99.90;;;;;;5111173;27;2020;-67
2022/10/24 14:05:23;;;;;;;;;;;15.90;99.90;;;;;;5133467;27;1116;-67
2022/10/24 14:07:49;;;;;;;;;;;16.10;99.90;;;;;;5136517;27;1323;-67
2022/10/24 14:10:16;;;;;;;;;;;16.50;99.90;;;;;;5133515;27;1100;-67
2022/10/24 14:12:43;;;;;;;;;;;16.70;99.90;;;;;;5133575;27;1150;-67
2022/10/24 14:15:17;;;;;;;;;;;16.60;99.90;;;;;;5113532;27;1147;-67
2022/10/24 14:17:51;;;;;;;;;;;16.80;99.90;;;;;;5129814;27;1198;-67
2022/10/24 14:20:20;;;;;;;;;;;17.10;99.90;;;;;;5130977;27;1168;-67
2022/10/24 14:22:46;;;;;;;;;;;16.70;99.90;;;;;;5103045;28;2000;-67
2022/10/24 14:25:22;;;;;;;;;;;16.30;99.90;;;;;;5127891;27;1396;-67
2022/10/24 14:27:48;;;;;;;;;;;16.00;99.90;;;;;;5124219;27;1215;-67
2022/10/24 14:30:18;;;;;;;;;;;15.90;99.90;;;;;;5118213;27;1642;-67
2022/10/24 14:32:44;;;;;;;;;;;15.70;99.90;;;;;;5132710;27;1092;-67
2022/10/24 14:35:11;;;;;;;;;;;15.40;99.90;;;;;;5126617;27;1172;-67
2022/10/24 14:37:37;;;;;;;;;;;15.40;99.90;;;;;;5131808;27;1269;-67